Aviation Digital Data Service (ADDS)

Output produced by TAFs form (0801 UTC 29 August 2014)
found at http://www.aviationweather.gov/adds/tafs/
 
KBJC 290754Z AUTO 25006KT 10SM CLR 13/07 A3011 RMK AO2
KBJC 290526Z 2906/3006 25006KT P6SM FEW200 
     FM291400 VRB05KT P6SM FEW140 FEW200 
     FM292100 33013KT P6SM SCT070 BKN120 
     PROB30 2921/2924 VRB15G25KT -TSRA BKN060CB 
     FM300200 27012KT P6SM SCT080 SCT150